createdAt,value
2023-03-12T00:00:50.474Z,99.90
2023-03-12T00:03:19.263Z,99.90
2023-03-12T00:05:47.276Z,99.90
2023-03-12T00:08:15.283Z,99.90
2023-03-12T00:10:43.571Z,99.90
2023-03-12T00:13:13.042Z,99.90
2023-03-12T00:15:41.219Z,99.90
2023-03-12T00:18:09.279Z,99.90
2023-03-12T00:20:37.406Z,99.90
2023-03-12T00:23:05.746Z,99.90
2023-03-12T00:25:33.707Z,99.90
2023-03-12T00:28:01.868Z,99.90
2023-03-12T00:30:32.290Z,99.90
2023-03-12T00:33:00.352Z,99.90
2023-03-12T00:35:28.517Z,99.90
2023-03-12T00:37:56.557Z,99.90
2023-03-12T00:40:24.684Z,99.90
2023-03-12T00:42:52.896Z,99.90
2023-03-12T00:45:21.135Z,99.90
2023-03-12T00:47:50.569Z,99.90
2023-03-12T00:50:19.080Z,99.90
2023-03-12T00:52:47.281Z,99.90
2023-03-12T00:55:15.288Z,99.90
2023-03-12T00:57:43.275Z,99.90
2023-03-12T01:00:13.503Z,99.90
2023-03-12T01:02:42.658Z,99.90
2023-03-12T01:05:14.197Z,99.90
2023-03-12T01:07:42.263Z,99.90
2023-03-12T01:10:13.250Z,99.90
2023-03-12T01:12:41.267Z,99.90
2023-03-12T01:15:11.054Z,99.90
2023-03-12T01:17:39.005Z,99.90
2023-03-12T01:20:08.484Z,99.90
2023-03-12T01:22:38.554Z,99.90
2023-03-12T01:25:07.856Z,99.90
2023-03-12T01:27:35.812Z,99.90
2023-03-12T01:30:04.281Z,99.90
2023-03-12T01:32:32.539Z,99.90
2023-03-12T01:35:01.276Z,99.90
2023-03-12T01:37:29.583Z,99.90
2023-03-12T01:39:58.882Z,99.90
2023-03-12T01:42:27.107Z,99.90
2023-03-12T01:44:56.979Z,99.90
2023-03-12T01:47:25.265Z,99.90
2023-03-12T01:49:55.508Z,99.90
2023-03-12T01:52:26.182Z,99.90
2023-03-12T01:54:57.665Z,99.90
2023-03-12T01:57:31.618Z,99.90
2023-03-12T02:00:04.793Z,99.90
2023-03-12T02:02:33.287Z,99.90
2023-03-12T02:05:12.953Z,99.90
2023-03-12T02:07:40.924Z,99.90
2023-03-12T02:10:09.992Z,99.90
2023-03-12T02:12:39.521Z,99.90
2023-03-12T02:15:09.226Z,99.90
2023-03-12T02:17:38.064Z,99.90
2023-03-12T02:20:14.131Z,99.90
2023-03-12T02:22:47.478Z,99.90
2023-03-12T02:25:30.822Z,99.90
2023-03-12T02:28:00.120Z,99.90
2023-03-12T02:30:31.195Z,99.90
2023-03-12T02:33:02.929Z,99.90
2023-03-12T02:35:30.964Z,99.90
2023-03-12T02:37:59.438Z,99.90
2023-03-12T02:40:32.927Z,99.90
2023-03-12T02:43:01.962Z,99.90
2023-03-12T02:45:30.628Z,99.90
2023-03-12T02:47:58.815Z,99.90
2023-03-12T02:50:26.819Z,99.90
2023-03-12T02:52:54.863Z,99.90
2023-03-12T02:55:23.023Z,99.90
2023-03-12T02:57:52.384Z,99.90
2023-03-12T03:00:21.533Z,99.90
2023-03-12T03:02:49.514Z,99.90
2023-03-12T03:05:17.695Z,99.90
2023-03-12T03:07:45.658Z,99.90
2023-03-12T03:10:15.610Z,99.90
2023-03-12T03:12:43.817Z,99.90
2023-03-12T03:15:13.387Z,99.90
2023-03-12T03:17:41.666Z,99.90
2023-03-12T03:20:11.904Z,99.90
2023-03-12T03:22:40.619Z,99.90
2023-03-12T03:25:10.766Z,99.90
2023-03-12T03:27:38.888Z,99.90
2023-03-12T03:30:08.686Z,99.90
2023-03-12T03:32:39.237Z,99.90
2023-03-12T03:35:08.037Z,99.90
2023-03-12T03:37:36.011Z,99.90
2023-03-12T03:40:04.673Z,99.90
2023-03-12T03:42:32.947Z,99.90
2023-03-12T03:45:01.160Z,99.90
2023-03-12T03:47:29.170Z,99.90
2023-03-12T03:49:58.680Z,99.90
2023-03-12T03:52:26.703Z,99.90
2023-03-12T03:54:54.822Z,99.90
2023-03-12T03:57:23.006Z,99.90
2023-03-12T03:59:51.401Z,99.90
2023-03-12T04:02:19.809Z,99.90
2023-03-12T04:04:47.965Z,99.90
2023-03-12T04:07:17.561Z,99.90
2023-03-12T04:09:46.133Z,99.90
2023-03-12T04:12:14.333Z,99.90
2023-03-12T04:14:42.936Z,99.90
2023-03-12T04:17:11.179Z,99.90
2023-03-12T04:19:39.562Z,99.90
2023-03-12T04:22:07.639Z,99.90
2023-03-12T04:24:37.153Z,99.90
2023-03-12T04:27:05.922Z,99.90
2023-03-12T04:29:34.254Z,99.90
2023-03-12T04:32:02.260Z,99.90
2023-03-12T04:34:30.236Z,99.90
2023-03-12T04:36:58.354Z,99.90
2023-03-12T04:39:26.446Z,99.90
2023-03-12T04:41:56.110Z,99.90
2023-03-12T04:44:24.376Z,99.90
2023-03-12T04:46:52.479Z,99.90
2023-03-12T04:49:20.596Z,99.90
2023-03-12T04:51:48.657Z,99.90
2023-03-12T04:54:16.707Z,99.90
2023-03-12T04:56:45.223Z,99.90
2023-03-12T04:59:14.954Z,99.90
2023-03-12T05:01:43.372Z,99.90
2023-03-12T05:04:11.422Z,99.90
2023-03-12T05:06:39.544Z,99.90
2023-03-12T05:09:08.599Z,99.90
2023-03-12T05:11:39.196Z,99.90
2023-03-12T05:14:08.008Z,99.90
2023-03-12T05:16:37.541Z,99.90
2023-03-12T05:19:06.158Z,99.90
2023-03-12T05:21:34.578Z,99.90
2023-03-12T05:24:02.938Z,99.90
2023-03-12T05:26:33.205Z,99.90
2023-03-12T05:29:01.930Z,99.90
2023-03-12T05:31:33.151Z,99.90
2023-03-12T05:34:03.036Z,99.90
2023-03-12T05:36:31.200Z,99.90
2023-03-12T05:38:59.446Z,99.90
2023-03-12T05:41:29.514Z,99.90
2023-03-12T05:43:58.644Z,99.90
2023-03-12T05:46:27.956Z,99.90
2023-03-12T05:48:56.082Z,99.90
2023-03-12T05:51:25.738Z,99.90
2023-03-12T05:53:53.844Z,99.90
2023-03-12T05:56:22.010Z,99.90
2023-03-12T05:58:50.945Z,99.90
2023-03-12T06:01:21.569Z,99.90
2023-03-12T06:03:49.964Z,99.90
2023-03-12T06:06:18.982Z,99.90
2023-03-12T06:08:48.602Z,99.90
2023-03-12T06:11:16.909Z,99.90
2023-03-12T06:13:45.033Z,99.90
2023-03-12T06:16:18.896Z,99.90
2023-03-12T06:18:47.019Z,99.90
2023-03-12T06:21:17.551Z,99.90
2023-03-12T06:23:46.543Z,99.90
2023-03-12T06:26:17.642Z,99.90
2023-03-12T06:28:46.906Z,99.90
2023-03-12T06:31:15.372Z,99.90
2023-03-12T06:33:43.715Z,99.90
2023-03-12T06:36:12.816Z,99.90
2023-03-12T06:38:42.068Z,99.90
2023-03-12T06:41:12.553Z,99.90
2023-03-12T06:43:42.465Z,99.90
2023-03-12T06:46:14.320Z,99.90
2023-03-12T06:48:42.445Z,99.90
2023-03-12T06:51:11.969Z,99.90
2023-03-12T06:53:42.386Z,99.90
2023-03-12T06:56:10.914Z,99.90
2023-03-12T06:58:39.700Z,99.90
2023-03-12T07:01:10.084Z,99.90
2023-03-12T07:03:38.102Z,99.90
2023-03-12T07:06:06.852Z,99.90
2023-03-12T07:08:35.065Z,99.90
2023-03-12T07:11:03.766Z,99.90
2023-03-12T07:13:32.133Z,99.90
2023-03-12T07:16:00.205Z,99.90
2023-03-12T07:18:29.712Z,99.90
2023-03-12T07:20:57.759Z,99.90
2023-03-12T07:23:25.784Z,99.90
2023-03-12T07:25:54.418Z,99.90
2023-03-12T07:28:22.813Z,99.90
2023-03-12T07:30:51.437Z,99.90
2023-03-12T07:33:21.097Z,99.90
2023-03-12T07:35:51.973Z,99.90
2023-03-12T07:38:20.882Z,99.90
2023-03-12T07:40:52.002Z,99.90
2023-03-12T07:43:21.649Z,99.90
2023-03-12T07:45:49.930Z,99.90
2023-03-12T07:48:19.898Z,99.90
2023-03-12T07:50:48.740Z,99.90
2023-03-12T07:53:18.717Z,99.90
2023-03-12T07:55:48.298Z,99.90
2023-03-12T07:58:16.707Z,99.90
2023-03-12T08:00:45.094Z,99.90
2023-03-12T08:03:13.420Z,99.90
2023-03-12T08:05:41.875Z,99.90
2023-03-12T08:10:40.135Z,99.90
2023-03-12T08:13:08.128Z,99.90
2023-03-12T08:15:36.139Z,99.90
2023-03-12T08:18:04.344Z,99.90
2023-03-12T08:20:32.592Z,99.90
2023-03-12T08:23:00.581Z,99.90
2023-03-12T08:25:28.966Z,99.90
2023-03-12T08:27:58.285Z,99.90
2023-03-12T08:30:29.092Z,99.90
2023-03-12T08:32:58.380Z,99.90
2023-03-12T08:35:26.421Z,99.90
2023-03-12T08:37:54.592Z,99.90
2023-03-12T08:40:22.684Z,99.90
2023-03-12T08:42:50.870Z,99.90
2023-03-12T08:45:20.489Z,99.90
2023-03-12T08:47:48.451Z,99.90
2023-03-12T08:50:17.913Z,99.90
2023-03-12T08:52:45.964Z,99.90
2023-03-12T08:55:14.096Z,99.90
2023-03-12T08:57:42.532Z,99.90
2023-03-12T09:00:15.096Z,99.90
2023-03-12T09:02:46.216Z,99.90
2023-03-12T09:05:14.776Z,99.90
2023-03-12T09:07:43.439Z,99.90
2023-03-12T09:10:12.444Z,99.90
2023-03-12T09:12:40.841Z,99.90
2023-03-12T09:15:10.281Z,99.90
2023-03-12T09:17:38.871Z,99.90
2023-03-12T09:20:14.020Z,99.90
2023-03-12T09:22:42.661Z,99.90
2023-03-12T09:25:12.367Z,99.90
2023-03-12T09:27:41.909Z,99.90
2023-03-12T09:30:12.619Z,99.90
2023-03-12T09:32:40.745Z,99.90
2023-03-12T09:35:11.088Z,99.90
2023-03-12T09:37:39.107Z,99.90
2023-03-12T09:40:08.921Z,99.90
2023-03-12T09:42:42.547Z,99.90
2023-03-12T09:45:18.119Z,99.90
2023-03-12T09:47:50.577Z,99.90
2023-03-12T09:50:26.147Z,99.90
2023-03-12T09:52:59.772Z,99.90
2023-03-12T09:55:30.083Z,99.90
2023-03-12T09:57:59.571Z,99.90
2023-03-12T10:00:31.896Z,99.90
2023-03-12T10:03:16.021Z,99.90
2023-03-12T10:05:48.484Z,99.90
2023-03-12T10:08:29.121Z,99.90
2023-03-12T10:11:07.111Z,99.90
2023-03-12T10:13:48.483Z,99.90
2023-03-12T10:16:33.569Z,99.90
2023-03-12T10:19:14.553Z,99.90
2023-03-12T10:21:53.597Z,99.90
2023-03-12T10:24:37.581Z,99.90
2023-03-12T10:27:13.320Z,99.90
2023-03-12T10:29:45.192Z,99.90
2023-03-12T10:32:18.202Z,99.90
2023-03-12T10:34:48.890Z,99.90
2023-03-12T10:37:23.667Z,99.90
2023-03-12T10:39:52.870Z,99.90
2023-03-12T10:42:24.009Z,99.90
2023-03-12T10:44:54.915Z,99.90
2023-03-12T10:47:37.189Z,99.90
2023-03-12T10:50:15.188Z,99.90
2023-03-12T10:52:45.767Z,99.90
2023-03-12T10:55:21.754Z,99.90
2023-03-12T10:57:50.786Z,99.90
2023-03-12T11:00:22.892Z,99.90
2023-03-12T11:02:59.328Z,99.90
2023-03-12T11:05:30.727Z,99.90
2023-03-12T11:08:02.054Z,99.90
2023-03-12T11:10:43.120Z,99.90
2023-03-12T11:13:28.358Z,99.90
2023-03-12T11:15:58.016Z,99.90
2023-03-12T11:18:36.604Z,99.90
2023-03-12T11:21:17.586Z,99.90
2023-03-12T11:24:07.382Z,99.90
2023-03-12T11:26:40.900Z,99.90
2023-03-12T11:29:18.685Z,99.90
2023-03-12T11:31:56.206Z,99.90
2023-03-12T11:34:28.430Z,99.90
2023-03-12T11:37:05.980Z,99.90
2023-03-12T11:39:57.422Z,99.90
2023-03-12T11:42:39.152Z,99.90
2023-03-12T11:45:15.801Z,99.90
2023-03-12T11:47:57.120Z,99.90
2023-03-12T11:50:37.123Z,99.90
2023-03-12T11:53:24.843Z,99.90
2023-03-12T11:56:01.506Z,99.90
2023-03-12T11:58:55.074Z,99.90
2023-03-12T12:01:32.670Z,99.90
2023-03-12T12:04:38.939Z,98.50
2023-03-12T12:07:16.841Z,97.40
2023-03-12T12:09:52.466Z,96.50
2023-03-12T12:12:36.003Z,96.80
2023-03-12T12:15:16.011Z,96.10
2023-03-12T12:17:57.748Z,95.00
2023-03-12T12:20:39.067Z,94.90
2023-03-12T12:23:17.567Z,94.30
2023-03-12T12:26:05.618Z,93.90
2023-03-12T12:28:58.289Z,93.00
2023-03-12T12:31:33.308Z,93.00
2023-03-12T12:34:39.154Z,93.60
2023-03-12T12:37:22.743Z,93.10
2023-03-12T12:39:57.316Z,92.70
2023-03-12T12:42:30.968Z,93.30
2023-03-12T12:45:04.437Z,92.30
2023-03-12T12:47:41.612Z,91.90
2023-03-12T12:50:17.458Z,92.40
2023-03-12T12:52:47.365Z,91.70
2023-03-12T12:55:20.834Z,92.20
2023-03-12T12:57:54.312Z,92.30
2023-03-12T13:00:44.773Z,92.50
2023-03-12T13:03:17.577Z,91.60
2023-03-12T13:05:54.164Z,92.00
2023-03-12T13:08:51.109Z,91.50
2023-03-12T13:11:41.624Z,91.40
2023-03-12T13:14:38.247Z,90.70
2023-03-12T13:17:34.664Z,90.20
2023-03-12T13:20:16.489Z,90.80
2023-03-12T13:23:06.509Z,89.10
2023-03-12T13:25:51.710Z,94.10
2023-03-12T13:28:36.081Z,89.70
2023-03-12T14:23:23.884Z,87.90
2023-03-12T14:28:25.971Z,96.60
2023-03-12T14:31:00.970Z,87.70
2023-03-12T14:33:35.154Z,88.10
2023-03-12T14:36:07.936Z,88.30
2023-03-12T14:38:40.736Z,88.60
2023-03-12T14:41:16.682Z,88.80
2023-03-12T14:43:46.464Z,88.60
2023-03-12T14:46:17.011Z,88.80
2023-03-12T14:48:48.616Z,89.10
2023-03-12T14:51:24.067Z,89.10
2023-03-12T14:53:52.991Z,89.00
2023-03-12T14:56:29.583Z,89.30
2023-03-12T14:58:59.291Z,89.40
2023-03-12T15:01:30.516Z,89.70
2023-03-12T15:04:01.362Z,89.80
2023-03-12T15:06:32.352Z,89.60
2023-03-12T15:09:04.489Z,89.40
2023-03-12T15:11:35.966Z,89.60
2023-03-12T15:14:07.853Z,89.80
2023-03-12T15:16:36.948Z,89.80
2023-03-12T15:19:05.829Z,90.00
2023-03-12T15:21:35.552Z,90.10
2023-03-12T15:24:05.043Z,90.20
2023-03-12T15:26:38.148Z,90.40
2023-03-12T15:29:26.313Z,90.50
2023-03-12T15:31:56.975Z,90.70
2023-03-12T15:34:32.908Z,90.90
2023-03-12T15:37:03.781Z,91.00
2023-03-12T15:39:33.753Z,91.00
2023-03-12T15:42:09.658Z,91.10
2023-03-12T15:44:46.954Z,91.30
2023-03-12T15:47:17.959Z,91.40
2023-03-12T15:49:52.994Z,91.50
2023-03-12T15:52:31.113Z,91.60
2023-03-12T15:55:06.014Z,91.60
2023-03-12T15:57:45.593Z,91.70
2023-03-12T16:00:24.032Z,91.90
2023-03-12T16:02:55.356Z,92.10
2023-03-12T16:05:26.970Z,92.20
2023-03-12T16:07:55.234Z,92.30
2023-03-12T16:10:26.817Z,92.30
2023-03-12T16:13:01.638Z,92.40
2023-03-12T16:15:33.500Z,92.50
2023-03-12T16:18:01.527Z,92.70
2023-03-12T16:20:30.454Z,92.70
2023-03-12T16:22:58.793Z,92.90
2023-03-12T16:25:27.111Z,93.00
2023-03-12T16:28:01.535Z,93.20
2023-03-12T16:30:31.678Z,93.40
2023-03-12T16:33:02.062Z,93.50
2023-03-12T16:35:31.474Z,93.50
2023-03-12T16:38:00.922Z,93.70
2023-03-12T16:40:33.821Z,93.80
2023-03-12T16:43:06.755Z,93.90
2023-03-12T16:45:37.077Z,94.20
2023-03-12T16:48:07.201Z,94.50
2023-03-12T16:50:35.686Z,94.80
2023-03-12T16:53:05.472Z,95.00
2023-03-12T16:55:45.600Z,95.20
2023-03-12T16:58:17.760Z,95.40
2023-03-12T17:00:47.215Z,95.50
2023-03-12T17:03:20.559Z,95.60
2023-03-12T17:05:48.714Z,95.80
2023-03-12T17:08:17.146Z,95.90
2023-03-12T17:10:45.580Z,96.10
2023-03-12T17:13:23.949Z,96.20
2023-03-12T17:15:53.083Z,96.40
2023-03-12T17:18:21.954Z,96.60
2023-03-12T17:20:51.902Z,96.80
2023-03-12T17:23:20.195Z,97.30
2023-03-12T17:25:48.522Z,97.20
2023-03-12T17:28:16.758Z,97.30
2023-03-12T17:30:47.425Z,97.50
2023-03-12T17:33:17.517Z,97.70
2023-03-12T17:35:45.769Z,98.00
2023-03-12T17:38:14.464Z,98.20
2023-03-12T17:40:44.581Z,98.40
2023-03-12T17:43:12.707Z,98.50
2023-03-12T17:45:41.809Z,98.60
2023-03-12T17:48:11.458Z,98.70
2023-03-12T17:50:39.938Z,99.20
2023-03-12T17:53:08.216Z,99.00
2023-03-12T17:55:36.934Z,99.20
2023-03-12T17:58:06.157Z,99.30
2023-03-12T18:00:35.251Z,99.70
2023-03-12T18:03:03.547Z,99.70
2023-03-12T18:05:33.148Z,99.80
2023-03-12T18:17:56.836Z,99.90
2023-03-12T18:20:36.212Z,99.90
2023-03-12T18:23:07.749Z,99.90
2023-03-12T18:25:35.856Z,99.90
2023-03-12T18:28:04.354Z,99.90
2023-03-12T18:30:33.009Z,99.90
2023-03-12T18:33:01.107Z,99.90
2023-03-12T18:35:30.719Z,99.90
2023-03-12T18:37:59.428Z,99.90
2023-03-12T18:40:29.888Z,99.90
2023-03-12T18:42:59.630Z,99.90
2023-03-12T18:45:30.092Z,99.90
2023-03-12T18:47:58.995Z,99.90
2023-03-12T18:50:34.791Z,99.90
2023-03-12T18:53:06.509Z,99.90
2023-03-12T18:55:36.086Z,99.90
2023-03-12T18:58:04.436Z,99.90
2023-03-12T19:00:32.680Z,99.90
2023-03-12T19:03:00.921Z,99.90
2023-03-12T19:05:29.432Z,99.90
2023-03-12T19:07:57.672Z,99.90
2023-03-12T19:10:26.099Z,99.90
2023-03-12T19:12:55.610Z,99.90
2023-03-12T19:15:25.206Z,99.90
2023-03-12T19:17:54.255Z,99.90
2023-03-12T19:20:23.045Z,99.90
2023-03-12T19:22:51.340Z,99.90
2023-03-12T19:25:20.229Z,99.90
2023-03-12T19:27:48.521Z,99.90
2023-03-12T19:30:18.502Z,99.90
2023-03-12T19:32:47.317Z,99.90
2023-03-12T19:35:16.562Z,99.90
2023-03-12T19:37:44.908Z,99.90
2023-03-12T19:40:14.356Z,99.90
2023-03-12T19:42:42.531Z,99.90
2023-03-12T19:45:12.019Z,99.90
2023-03-12T19:47:41.845Z,99.90
2023-03-12T19:50:11.897Z,99.90
2023-03-12T19:52:39.961Z,99.90
2023-03-12T19:55:09.832Z,99.90
2023-03-12T19:57:37.894Z,99.90
2023-03-12T20:00:09.618Z,99.90
2023-03-12T20:02:38.921Z,99.90
2023-03-12T20:05:09.943Z,99.90
2023-03-12T20:07:38.174Z,99.90
2023-03-12T20:10:09.957Z,99.90
2023-03-12T20:12:38.420Z,99.90
2023-03-12T20:15:09.107Z,99.90
2023-03-12T20:17:37.430Z,99.90
2023-03-12T20:20:09.589Z,99.90
2023-03-12T20:22:37.621Z,99.90
2023-03-12T20:25:06.885Z,99.90
2023-03-12T20:27:35.295Z,99.90
2023-03-12T20:30:04.742Z,99.90
2023-03-12T20:32:33.347Z,99.90
2023-03-12T20:35:03.094Z,99.90
2023-03-12T20:37:32.801Z,99.90
2023-03-12T20:40:00.880Z,99.90
2023-03-12T20:42:28.942Z,99.90
2023-03-12T20:44:56.974Z,99.90
2023-03-12T20:47:25.243Z,99.90
2023-03-12T20:49:53.508Z,99.90
2023-03-12T20:52:21.539Z,99.90
2023-03-12T20:54:51.207Z,99.90
2023-03-12T20:57:19.360Z,99.90
2023-03-12T20:59:47.778Z,99.90
2023-03-12T21:02:16.260Z,99.90
2023-03-12T21:04:44.601Z,99.90
2023-03-12T21:07:12.926Z,99.90
2023-03-12T21:09:41.243Z,99.90
2023-03-12T21:12:10.829Z,99.90
2023-03-12T21:14:40.048Z,99.90
2023-03-12T21:17:13.841Z,99.90
2023-03-12T21:19:42.850Z,99.90
2023-03-12T21:22:11.605Z,99.90
2023-03-12T21:24:40.090Z,99.90
2023-03-12T21:27:11.582Z,99.90
2023-03-12T21:29:41.376Z,99.90
2023-03-12T21:32:09.866Z,99.90
2023-03-12T21:34:38.578Z,99.90
2023-03-12T21:37:07.324Z,99.90
2023-03-12T21:39:36.480Z,99.90
2023-03-12T21:42:05.257Z,99.90
2023-03-12T21:44:35.702Z,99.90
2023-03-12T21:47:05.890Z,99.90
2023-03-12T21:49:35.158Z,99.90
2023-03-12T21:52:03.533Z,99.90
2023-03-12T21:54:37.463Z,99.90
2023-03-12T21:57:06.558Z,99.90
2023-03-12T21:59:35.069Z,99.90
2023-03-12T22:02:04.810Z,99.90
2023-03-12T22:04:33.305Z,99.90
2023-03-12T22:07:01.567Z,99.90
2023-03-12T22:09:29.676Z,99.90
2023-03-12T22:11:58.080Z,99.90
2023-03-12T22:14:26.980Z,99.90
2023-03-12T22:16:56.014Z,99.90
2023-03-12T22:19:25.801Z,99.90
2023-03-12T22:21:54.583Z,99.90
2023-03-12T22:24:22.963Z,99.90
2023-03-12T22:26:52.122Z,99.90
2023-03-12T22:29:20.674Z,99.90
2023-03-12T22:31:50.248Z,99.90
2023-03-12T22:34:18.302Z,99.90
2023-03-12T22:36:47.819Z,99.90
2023-03-12T22:39:17.475Z,99.90
2023-03-12T22:41:45.575Z,99.90
2023-03-12T22:44:15.649Z,99.90
2023-03-12T22:46:44.181Z,99.90
2023-03-12T22:49:12.907Z,99.90
2023-03-12T22:51:41.395Z,99.90
2023-03-12T22:54:11.412Z,99.90
2023-03-12T22:56:40.085Z,99.90
2023-03-12T22:59:08.481Z,99.90
2023-03-12T23:01:37.088Z,99.90
2023-03-12T23:04:06.443Z,99.90
2023-03-12T23:06:34.987Z,99.90
2023-03-12T23:09:03.661Z,99.90
2023-03-12T23:11:33.868Z,99.90
2023-03-12T23:14:03.082Z,99.90
2023-03-12T23:16:31.744Z,99.90
2023-03-12T23:19:00.909Z,99.90
2023-03-12T23:21:29.337Z,99.90
2023-03-12T23:23:57.517Z,99.90
2023-03-12T23:26:27.618Z,99.90
2023-03-12T23:28:58.032Z,99.90
2023-03-12T23:31:27.744Z,99.90
2023-03-12T23:33:56.751Z,99.90
2023-03-12T23:36:25.280Z,99.90
2023-03-12T23:38:53.305Z,99.90
2023-03-12T23:41:22.939Z,99.90
2023-03-12T23:43:51.693Z,99.90
2023-03-12T23:46:21.784Z,99.90
2023-03-12T23:48:50.724Z,99.90
2023-03-12T23:51:20.430Z,99.90
2023-03-12T23:53:50.006Z,99.90
2023-03-12T23:56:19.911Z,99.90
2023-03-12T23:58:48.601Z,99.90
